createdAt,value
2019-03-06T00:00:24.070Z,6.36
2019-03-06T00:01:24.058Z,6.36
2019-03-06T00:02:24.030Z,6.32
2019-03-06T00:03:24.022Z,6.33
2019-03-06T00:04:24.014Z,6.25
2019-03-06T00:05:24.013Z,6.20
2019-03-06T00:06:23.990Z,6.27
2019-03-06T00:07:23.980Z,6.16
2019-03-06T00:08:23.976Z,6.21
2019-03-06T00:09:23.964Z,6.20
2019-03-06T00:10:23.967Z,6.16
2019-03-06T00:11:23.981Z,6.25
2019-03-06T00:12:23.924Z,6.25
2019-03-06T00:13:23.925Z,6.14
2019-03-06T00:14:23.905Z,6.20
2019-03-06T00:15:23.916Z,6.19
2019-03-06T00:16:23.883Z,6.21
2019-03-06T00:17:23.883Z,6.19
2019-03-06T00:18:23.865Z,6.16
2019-03-06T00:19:23.866Z,6.13
2019-03-06T00:20:23.869Z,6.25
2019-03-06T00:21:23.857Z,6.20
2019-03-06T00:22:23.831Z,6.13
2019-03-06T00:23:23.813Z,6.17
2019-03-06T00:24:23.800Z,6.27
2019-03-06T00:25:23.803Z,6.17
2019-03-06T00:26:23.783Z,6.06
2019-03-06T00:27:23.781Z,6.14
2019-03-06T00:28:23.766Z,6.19
2019-03-06T00:29:23.748Z,6.08
2019-03-06T00:30:23.752Z,6.14
2019-03-06T00:31:23.730Z,6.17
2019-03-06T00:32:23.717Z,6.08
2019-03-06T00:33:23.707Z,6.06
2019-03-06T00:34:23.700Z,6.10
2019-03-06T00:35:23.694Z,6.17
2019-03-06T00:36:23.681Z,6.13
2019-03-06T00:37:23.669Z,6.05
2019-03-06T00:38:23.665Z,6.08
2019-03-06T00:39:23.656Z,6.06
2019-03-06T00:40:23.633Z,6.08
2019-03-06T00:41:23.669Z,6.02
2019-03-06T00:42:23.619Z,5.99
2019-03-06T00:43:23.617Z,5.99
2019-03-06T00:44:23.612Z,6.02
2019-03-06T00:45:23.583Z,5.88
2019-03-06T00:46:23.624Z,5.99
2019-03-06T00:47:23.568Z,5.95
2019-03-06T00:48:23.570Z,5.96
2019-03-06T00:49:23.543Z,5.85
2019-03-06T00:50:23.537Z,5.93
2019-03-06T00:51:23.527Z,5.96
2019-03-06T00:52:23.519Z,5.87
2019-03-06T00:53:23.516Z,6.01
2019-03-06T00:54:23.493Z,5.85
2019-03-06T00:55:23.488Z,5.95
2019-03-06T00:56:23.488Z,5.87
2019-03-06T00:57:23.462Z,6.01
2019-03-06T00:58:25.030Z,5.98
2019-03-06T00:59:23.444Z,5.99
2019-03-06T01:00:23.469Z,5.85
2019-03-06T01:01:23.468Z,5.90
2019-03-06T01:02:23.414Z,5.88
2019-03-06T01:03:23.398Z,5.88
2019-03-06T01:04:23.404Z,5.99
2019-03-06T01:05:23.391Z,5.93
2019-03-06T01:06:23.417Z,5.88
2019-03-06T01:07:23.356Z,5.96
2019-03-06T01:08:23.359Z,5.98
2019-03-06T01:09:23.353Z,5.92
2019-03-06T01:10:23.329Z,5.98
2019-03-06T01:11:23.336Z,5.99
2019-03-06T01:12:23.306Z,5.90
2019-03-06T01:13:23.308Z,5.93
2019-03-06T01:14:23.297Z,5.90
2019-03-06T01:15:23.273Z,5.88
2019-03-06T01:16:23.285Z,5.87
2019-03-06T01:17:23.259Z,5.90
2019-03-06T01:18:23.241Z,5.88
2019-03-06T01:19:23.234Z,5.90
2019-03-06T01:20:23.222Z,5.87
2019-03-06T01:21:23.222Z,5.74
2019-03-06T01:22:23.208Z,5.80
2019-03-06T01:23:23.198Z,5.78
2019-03-06T01:24:23.182Z,5.75
2019-03-06T01:25:23.170Z,5.69
2019-03-06T01:26:23.208Z,5.77
2019-03-06T01:27:23.150Z,5.63
2019-03-06T01:28:23.144Z,5.65
2019-03-06T01:29:23.133Z,5.60
2019-03-06T01:30:23.138Z,5.63
2019-03-06T01:31:23.124Z,5.67
2019-03-06T01:32:23.124Z,5.63
2019-03-06T01:33:23.104Z,5.70
2019-03-06T01:34:23.076Z,5.56
2019-03-06T01:35:23.069Z,5.55
2019-03-06T01:36:23.106Z,5.59
2019-03-06T01:37:23.044Z,5.60
2019-03-06T01:38:23.059Z,5.56
2019-03-06T01:39:23.024Z,5.45
2019-03-06T01:40:23.026Z,5.49
2019-03-06T01:41:23.010Z,5.59
2019-03-06T01:42:23.001Z,5.55
2019-03-06T01:43:22.990Z,5.55
2019-03-06T01:44:22.990Z,5.58
2019-03-06T01:45:22.963Z,5.51
2019-03-06T01:46:22.970Z,5.51
2019-03-06T01:47:22.946Z,5.44
2019-03-06T01:48:22.943Z,5.51
2019-03-06T01:49:22.923Z,5.40
2019-03-06T01:50:22.927Z,5.49
2019-03-06T01:51:22.945Z,5.47
2019-03-06T01:52:22.921Z,5.45
2019-03-06T01:53:22.881Z,5.38
2019-03-06T01:54:22.876Z,5.44
2019-03-06T01:55:22.862Z,5.37
2019-03-06T01:56:23.148Z,5.41
2019-03-06T01:57:22.839Z,5.45
2019-03-06T01:58:22.833Z,5.45
2019-03-06T01:59:22.824Z,5.42
2019-03-06T02:00:22.808Z,5.47
2019-03-06T02:01:22.798Z,5.38
2019-03-06T02:02:22.801Z,5.35
2019-03-06T02:03:22.794Z,5.42
2019-03-06T02:04:22.791Z,5.44
2019-03-06T02:05:22.772Z,5.44
2019-03-06T02:06:22.759Z,5.37
2019-03-06T02:07:22.764Z,5.35
2019-03-06T02:08:22.743Z,5.40
2019-03-06T02:09:22.721Z,5.27
2019-03-06T02:10:22.726Z,5.33
2019-03-06T02:11:22.698Z,5.30
2019-03-06T02:12:22.698Z,5.33
2019-03-06T02:13:22.677Z,5.32
2019-03-06T02:14:22.669Z,5.38
2019-03-06T02:15:22.655Z,5.27
2019-03-06T02:16:22.651Z,5.17
2019-03-06T02:17:22.648Z,5.11
2019-03-06T02:18:22.687Z,5.19
2019-03-06T02:19:22.629Z,5.08
2019-03-06T02:20:22.615Z,5.12
2019-03-06T02:21:22.592Z,5.14
2019-03-06T02:22:22.612Z,5.08
2019-03-06T02:23:22.575Z,5.14
2019-03-06T02:24:22.588Z,5.15
2019-03-06T02:25:22.553Z,5.20
2019-03-06T02:26:22.542Z,5.14
2019-03-06T02:27:22.544Z,5.11
2019-03-06T02:28:22.520Z,5.06
2019-03-06T02:29:22.512Z,5.02
2019-03-06T02:30:22.501Z,5.11
2019-03-06T02:31:22.494Z,5.08
2019-03-06T02:32:22.500Z,5.06
2019-03-06T02:33:22.497Z,5.11
2019-03-06T02:34:22.497Z,5.05
2019-03-06T02:35:22.451Z,5.11
2019-03-06T02:36:22.487Z,5.09
2019-03-06T02:37:22.500Z,5.08
2019-03-06T02:38:22.417Z,5.06
2019-03-06T02:39:22.406Z,5.05
2019-03-06T02:40:22.403Z,5.06
2019-03-06T02:41:22.420Z,5.04
2019-03-06T02:42:22.393Z,5.02
2019-03-06T02:43:22.375Z,4.90
2019-03-06T02:44:22.375Z,5.05
2019-03-06T02:45:22.344Z,4.87
2019-03-06T02:46:22.380Z,4.97
2019-03-06T02:47:22.342Z,4.97
2019-03-06T02:48:22.342Z,4.88
2019-03-06T02:49:22.323Z,5.02
2019-03-06T02:50:22.295Z,5.04
2019-03-06T02:51:22.293Z,5.05
2019-03-06T02:52:22.305Z,5.09
2019-03-06T02:53:22.275Z,5.06
2019-03-06T02:54:22.256Z,5.01
2019-03-06T02:55:22.257Z,4.90
2019-03-06T02:56:22.253Z,4.91
2019-03-06T02:57:22.230Z,5.06
2019-03-06T02:58:22.225Z,4.99
2019-03-06T02:59:22.212Z,4.93
2019-03-06T03:00:22.197Z,5.04
2019-03-06T03:01:22.186Z,4.94
2019-03-06T03:02:22.180Z,4.96
2019-03-06T03:03:22.159Z,4.91
2019-03-06T03:04:22.156Z,4.96
2019-03-06T03:05:22.141Z,4.99
2019-03-06T03:06:22.161Z,4.91
2019-03-06T03:07:22.148Z,4.91
2019-03-06T03:08:22.111Z,4.94
2019-03-06T03:09:22.119Z,4.91
2019-03-06T03:10:22.085Z,4.93
2019-03-06T03:11:22.091Z,4.87
2019-03-06T03:12:22.074Z,4.93
2019-03-06T03:13:22.123Z,4.96
2019-03-06T03:14:22.050Z,4.72
2019-03-06T03:15:22.043Z,4.84
2019-03-06T03:16:22.022Z,4.86
2019-03-06T03:17:22.057Z,4.86
2019-03-06T03:18:22.025Z,4.86
2019-03-06T03:19:22.016Z,4.90
2019-03-06T03:20:22.002Z,4.77
2019-03-06T03:21:21.995Z,4.77
2019-03-06T03:22:21.967Z,4.77
2019-03-06T03:23:21.966Z,4.77
2019-03-06T03:24:21.962Z,4.77
2019-03-06T03:25:21.985Z,4.79
2019-03-06T03:26:21.922Z,4.83
2019-03-06T03:27:21.922Z,4.74
2019-03-06T03:28:21.925Z,4.68
2019-03-06T03:29:21.913Z,4.74
2019-03-06T03:30:21.911Z,4.83
2019-03-06T03:31:21.875Z,4.71
2019-03-06T03:32:21.868Z,4.72
2019-03-06T03:33:21.867Z,4.64
2019-03-06T03:34:21.970Z,4.64
2019-03-06T03:35:21.823Z,4.68
2019-03-06T03:36:21.822Z,4.68
2019-03-06T03:37:21.820Z,4.62
2019-03-06T03:38:21.851Z,4.68
2019-03-06T03:39:21.789Z,4.64
2019-03-06T03:40:21.781Z,4.62
2019-03-06T03:41:21.767Z,4.64
2019-03-06T03:42:21.755Z,4.67
2019-03-06T03:43:21.766Z,4.56
2019-03-06T03:44:21.739Z,4.59
2019-03-06T03:45:21.731Z,4.50
2019-03-06T03:46:21.718Z,4.44
2019-03-06T03:47:21.708Z,4.42
2019-03-06T03:48:21.702Z,4.36
2019-03-06T03:49:21.682Z,4.35
2019-03-06T03:50:21.714Z,4.29
2019-03-06T03:51:21.658Z,4.38
2019-03-06T03:52:21.650Z,4.26
2019-03-06T03:53:21.678Z,4.25
2019-03-06T03:54:21.637Z,4.26
2019-03-06T03:55:21.633Z,4.25
2019-03-06T03:56:21.619Z,4.35
2019-03-06T03:57:21.611Z,4.29
2019-03-06T03:58:21.601Z,4.29
2019-03-06T03:59:21.575Z,4.32
2019-03-06T04:00:21.577Z,4.21
2019-03-06T04:01:21.553Z,4.24
2019-03-06T04:02:21.557Z,4.26
2019-03-06T04:03:21.591Z,4.28
2019-03-06T04:04:21.524Z,4.28
2019-03-06T04:05:21.512Z,4.21
2019-03-06T04:06:21.504Z,4.34
2019-03-06T04:07:21.493Z,4.28
2019-03-06T04:08:21.506Z,4.28
2019-03-06T04:09:21.472Z,4.31
2019-03-06T04:10:21.476Z,4.26
2019-03-06T04:11:21.451Z,4.25
2019-03-06T04:12:21.455Z,4.21
2019-03-06T04:13:21.439Z,4.17
2019-03-06T04:14:21.444Z,4.20
2019-03-06T04:15:21.499Z,4.20
2019-03-06T04:16:21.404Z,4.26
2019-03-06T04:17:21.394Z,4.21
2019-03-06T04:18:21.415Z,4.26
2019-03-06T04:19:21.380Z,4.14
2019-03-06T04:20:21.397Z,4.11
2019-03-06T04:21:21.359Z,4.14
2019-03-06T04:22:21.351Z,4.20
2019-03-06T04:23:21.341Z,4.07
2019-03-06T04:24:21.334Z,4.17
2019-03-06T04:25:21.303Z,4.18
2019-03-06T04:26:21.311Z,4.24
2019-03-06T04:27:21.317Z,4.29
2019-03-06T04:28:21.277Z,4.24
2019-03-06T04:29:21.276Z,4.08
2019-03-06T04:30:22.076Z,4.08
2019-03-06T04:31:21.241Z,4.04
2019-03-06T04:32:21.236Z,4.24
2019-03-06T04:33:21.227Z,4.18
2019-03-06T04:34:21.214Z,4.10
2019-03-06T04:35:21.212Z,4.13
2019-03-06T04:36:21.200Z,4.04
2019-03-06T04:37:21.205Z,4.11
2019-03-06T04:38:21.208Z,4.04
2019-03-06T04:39:21.169Z,4.02
2019-03-06T04:40:21.150Z,4.04
2019-03-06T04:41:21.204Z,4.06
2019-03-06T04:42:21.127Z,4.04
2019-03-06T04:43:21.129Z,3.96
2019-03-06T04:44:21.133Z,3.95
2019-03-06T04:45:21.124Z,4.00
2019-03-06T04:46:21.151Z,3.93
2019-03-06T04:47:21.081Z,3.96
2019-03-06T04:48:21.065Z,3.96
2019-03-06T04:49:21.071Z,4.07
2019-03-06T04:50:21.047Z,3.96
2019-03-06T04:51:21.043Z,3.98
2019-03-06T04:52:21.044Z,3.89
2019-03-06T04:53:21.031Z,3.95
2019-03-06T04:54:21.025Z,3.99
2019-03-06T04:55:21.012Z,3.98
2019-03-06T04:56:20.983Z,3.92
2019-03-06T04:57:20.975Z,3.98
2019-03-06T04:58:20.963Z,3.90
2019-03-06T04:59:20.964Z,3.98
2019-03-06T05:00:20.939Z,3.80
2019-03-06T05:01:20.949Z,3.92
2019-03-06T05:02:20.944Z,3.93
2019-03-06T05:03:20.931Z,3.96
2019-03-06T05:04:20.974Z,3.92
2019-03-06T05:05:20.914Z,3.95
2019-03-06T05:06:20.908Z,3.95
2019-03-06T05:07:20.867Z,3.99
2019-03-06T05:08:20.871Z,4.08
2019-03-06T05:09:20.888Z,4.04
2019-03-06T05:10:20.856Z,4.02
2019-03-06T05:11:20.866Z,4.04
2019-03-06T05:12:20.821Z,4.04
2019-03-06T05:13:20.834Z,4.08
2019-03-06T05:14:20.802Z,4.00
2019-03-06T05:15:20.900Z,4.04
2019-03-06T05:16:20.798Z,4.02
2019-03-06T05:17:20.766Z,4.04
2019-03-06T05:18:20.768Z,4.06
2019-03-06T05:19:20.756Z,4.04
2019-03-06T05:20:20.766Z,4.14
2019-03-06T05:21:20.733Z,4.08
2019-03-06T05:22:20.752Z,4.10
2019-03-06T05:23:20.728Z,4.04
2019-03-06T05:24:20.690Z,4.11
2019-03-06T05:25:20.705Z,4.10
2019-03-06T05:26:20.703Z,4.02
2019-03-06T05:27:20.693Z,4.14
2019-03-06T05:28:20.669Z,4.18
2019-03-06T05:29:20.654Z,4.08
2019-03-06T05:30:20.686Z,4.10
2019-03-06T05:31:20.618Z,4.06
2019-03-06T05:32:20.622Z,4.06
2019-03-06T05:33:20.620Z,4.02
2019-03-06T05:34:20.609Z,4.11
2019-03-06T05:35:20.624Z,4.08
2019-03-06T05:36:20.577Z,4.06
2019-03-06T05:37:20.566Z,4.04
2019-03-06T05:38:20.547Z,4.02
2019-03-06T05:39:20.545Z,4.10
2019-03-06T05:40:20.573Z,4.06
2019-03-06T05:41:20.533Z,4.02
2019-03-06T05:42:20.527Z,4.06
2019-03-06T05:43:20.500Z,4.06
2019-03-06T05:44:20.504Z,4.07
2019-03-06T05:45:20.510Z,4.06
2019-03-06T05:46:20.474Z,4.02
2019-03-06T05:47:20.477Z,4.07
2019-03-06T05:48:20.444Z,4.02
2019-03-06T05:49:20.476Z,4.02
2019-03-06T05:50:20.520Z,4.06
2019-03-06T05:51:20.419Z,4.02
2019-03-06T05:52:20.412Z,4.02
2019-03-06T05:53:20.407Z,4.07
2019-03-06T05:54:20.385Z,3.99
2019-03-06T05:55:20.401Z,4.11
2019-03-06T05:56:20.389Z,4.07
2019-03-06T05:57:20.369Z,4.06
2019-03-06T05:58:20.360Z,4.08
2019-03-06T05:59:20.364Z,4.07
2019-03-06T06:00:20.318Z,4.04
2019-03-06T06:01:20.347Z,4.04
2019-03-06T06:02:20.312Z,4.11
2019-03-06T06:03:20.290Z,4.10
2019-03-06T06:04:20.282Z,3.99
2019-03-06T06:05:20.280Z,4.07
2019-03-06T06:06:20.279Z,4.10
2019-03-06T06:07:20.269Z,4.10
2019-03-06T06:08:20.271Z,4.02
2019-03-06T06:09:20.227Z,4.00
2019-03-06T06:10:20.214Z,4.07
2019-03-06T06:11:20.234Z,4.10
2019-03-06T06:12:20.194Z,4.08
2019-03-06T06:13:20.192Z,4.04
2019-03-06T06:14:20.191Z,4.02
2019-03-06T06:15:20.171Z,4.08
2019-03-06T06:16:20.166Z,3.99
2019-03-06T06:17:20.195Z,4.07
2019-03-06T06:18:20.184Z,3.98
2019-03-06T06:19:20.133Z,3.98
2019-03-06T06:20:20.115Z,4.04
2019-03-06T06:21:20.121Z,3.98
2019-03-06T06:22:20.104Z,3.96
2019-03-06T06:23:20.105Z,3.96
2019-03-06T06:24:20.084Z,3.99
2019-03-06T06:25:20.077Z,3.95
2019-03-06T06:26:20.100Z,4.02
2019-03-06T06:27:20.064Z,3.99
2019-03-06T06:28:20.046Z,3.90
2019-03-06T06:29:20.027Z,3.93
2019-03-06T06:30:22.049Z,3.93
2019-03-06T06:31:20.011Z,3.98
2019-03-06T06:32:19.999Z,3.96
2019-03-06T06:33:20.001Z,3.98
2019-03-06T06:34:20.000Z,3.95
2019-03-06T06:35:19.958Z,3.96
2019-03-06T06:36:19.966Z,3.96
2019-03-06T06:37:20.005Z,3.92
2019-03-06T06:38:19.937Z,3.96
2019-03-06T06:39:19.924Z,3.89
2019-03-06T06:40:19.930Z,3.99
2019-03-06T06:41:19.924Z,3.93
2019-03-06T06:42:19.903Z,3.95
2019-03-06T06:43:19.877Z,3.96
2019-03-06T06:44:19.885Z,3.93
2019-03-06T06:45:19.863Z,3.99
2019-03-06T06:46:19.923Z,3.95
2019-03-06T06:47:19.841Z,4.04
2019-03-06T06:48:19.858Z,4.06
2019-03-06T06:49:19.819Z,4.00
2019-03-06T06:50:19.802Z,4.04
2019-03-06T06:51:19.798Z,4.07
2019-03-06T06:52:19.799Z,4.04
2019-03-06T06:53:19.770Z,4.13
2019-03-06T06:54:19.756Z,4.10
2019-03-06T06:55:19.753Z,4.06
2019-03-06T06:56:19.738Z,4.11
2019-03-06T06:57:19.736Z,4.06
2019-03-06T06:58:19.751Z,4.07
2019-03-06T06:59:19.726Z,4.26
2019-03-06T07:00:19.753Z,4.26
2019-03-06T07:01:19.686Z,4.26
2019-03-06T07:02:19.696Z,4.21
2019-03-06T07:03:19.681Z,4.29
2019-03-06T07:04:19.655Z,4.35
2019-03-06T07:05:19.713Z,4.35
2019-03-06T07:06:19.641Z,4.42
2019-03-06T07:07:19.678Z,4.43
2019-03-06T07:08:19.612Z,4.50
2019-03-06T07:09:19.604Z,4.56
2019-03-06T07:10:19.597Z,4.61
2019-03-06T07:11:19.600Z,4.65
2019-03-06T07:12:19.600Z,4.65
2019-03-06T07:13:19.572Z,4.68
2019-03-06T07:14:19.573Z,4.65
2019-03-06T07:15:19.555Z,4.67
2019-03-06T07:16:19.536Z,4.75
2019-03-06T07:17:19.545Z,4.72
2019-03-06T07:18:19.521Z,4.77
2019-03-06T07:19:19.536Z,4.75
2019-03-06T07:20:19.506Z,4.83
2019-03-06T07:21:19.528Z,4.80
2019-03-06T07:22:19.490Z,4.93
2019-03-06T07:23:19.478Z,4.86
2019-03-06T07:24:19.447Z,4.84
2019-03-06T07:25:19.465Z,4.88
2019-03-06T07:26:19.435Z,4.74
2019-03-06T07:27:19.429Z,5.04
2019-03-06T07:28:19.412Z,4.90
2019-03-06T07:29:19.392Z,4.88
2019-03-06T07:30:19.402Z,4.90
2019-03-06T07:31:19.416Z,4.94
2019-03-06T07:32:19.407Z,4.94
2019-03-06T07:33:19.415Z,4.97
2019-03-06T07:34:19.353Z,5.01
2019-03-06T07:35:19.392Z,4.97
2019-03-06T07:36:19.331Z,5.04
2019-03-06T07:37:28.112Z,4.99
2019-03-06T07:38:20.330Z,5.04
2019-03-06T07:39:19.292Z,5.08
2019-03-06T07:40:19.281Z,5.12
2019-03-06T07:41:19.293Z,5.14
2019-03-06T07:42:19.273Z,5.12
2019-03-06T07:43:19.251Z,5.12
2019-03-06T07:44:19.239Z,5.26
2019-03-06T07:45:19.227Z,5.29
2019-03-06T07:46:19.228Z,5.32
2019-03-06T07:47:19.209Z,5.42
2019-03-06T07:48:19.228Z,5.40
2019-03-06T07:49:19.210Z,5.52
2019-03-06T07:50:19.176Z,5.44
2019-03-06T07:51:19.169Z,5.49
2019-03-06T07:52:19.168Z,5.58
2019-03-06T07:53:19.159Z,5.63
2019-03-06T07:54:19.176Z,5.58
2019-03-06T07:55:19.137Z,5.63
2019-03-06T07:56:19.159Z,5.60
2019-03-06T07:57:19.110Z,5.62
2019-03-06T07:58:19.133Z,5.78
2019-03-06T07:59:19.100Z,5.75
2019-03-06T08:00:19.105Z,5.77
2019-03-06T08:01:19.085Z,5.75
2019-03-06T08:02:19.062Z,5.87
2019-03-06T08:03:19.091Z,5.90
2019-03-06T08:04:19.062Z,5.98
2019-03-06T08:05:19.022Z,5.88
2019-03-06T08:06:19.014Z,5.96
2019-03-06T08:07:19.021Z,5.98
2019-03-06T08:08:19.001Z,6.10
2019-03-06T08:09:18.996Z,6.06
2019-03-06T08:10:18.970Z,6.25
2019-03-06T08:11:18.977Z,6.14
2019-03-06T08:12:18.953Z,6.24
2019-03-06T08:13:18.961Z,6.17
2019-03-06T08:14:22.248Z,6.17
2019-03-06T08:15:18.929Z,6.25
2019-03-06T08:16:18.925Z,6.25
2019-03-06T08:17:18.976Z,6.33
2019-03-06T08:18:18.910Z,6.36
2019-03-06T08:19:18.917Z,6.46
2019-03-06T08:20:18.872Z,6.46
2019-03-06T08:21:18.858Z,6.54
2019-03-06T08:22:18.852Z,6.46
2019-03-06T08:23:18.848Z,6.43
2019-03-06T08:24:18.835Z,6.58
2019-03-06T08:25:18.830Z,6.57
2019-03-06T08:26:18.821Z,6.64
2019-03-06T08:27:18.793Z,6.57
2019-03-06T08:28:18.798Z,6.71
2019-03-06T08:29:18.773Z,6.78
2019-03-06T08:30:18.783Z,6.79
2019-03-06T08:31:18.756Z,6.82
2019-03-06T08:32:18.740Z,6.89
2019-03-06T08:33:18.782Z,6.96
2019-03-06T08:34:18.727Z,6.94
2019-03-06T08:35:18.712Z,6.99
2019-03-06T08:36:18.706Z,6.99
2019-03-06T08:37:18.744Z,7.05
2019-03-06T08:38:18.695Z,7.14
2019-03-06T08:39:18.672Z,7.21
2019-03-06T08:40:18.664Z,7.14
2019-03-06T08:41:18.655Z,7.26
2019-03-06T08:42:18.640Z,7.39
2019-03-06T08:43:18.643Z,7.34
2019-03-06T08:44:18.630Z,7.37
2019-03-06T08:45:18.601Z,7.44
2019-03-06T08:46:18.625Z,7.58
2019-03-06T08:47:18.582Z,7.51
2019-03-06T08:48:18.599Z,7.55
2019-03-06T08:49:18.580Z,7.55
2019-03-06T08:50:18.552Z,7.63
2019-03-06T08:51:18.539Z,7.66
2019-03-06T08:52:18.530Z,7.69
2019-03-06T08:53:18.536Z,7.67
2019-03-06T08:54:18.519Z,7.73
2019-03-06T08:55:18.517Z,7.74
2019-03-06T08:56:18.513Z,7.73
2019-03-06T08:57:18.481Z,7.89
2019-03-06T08:58:18.474Z,7.85
2019-03-06T08:59:18.785Z,7.91
2019-03-06T09:00:18.445Z,8.03
2019-03-06T09:01:18.442Z,7.96
2019-03-06T09:02:18.422Z,8.04
2019-03-06T09:03:18.455Z,8.13
2019-03-06T09:04:18.401Z,8.09
2019-03-06T09:05:18.394Z,8.17
2019-03-06T09:06:18.392Z,8.17
2019-03-06T09:07:18.382Z,8.21
2019-03-06T09:08:18.377Z,8.22
2019-03-06T09:09:18.355Z,8.24
2019-03-06T09:10:18.335Z,8.32
2019-03-06T09:11:18.343Z,8.28
2019-03-06T09:12:18.319Z,8.40
2019-03-06T09:13:18.329Z,8.42
2019-03-06T09:14:18.318Z,8.46
2019-03-06T09:15:18.284Z,8.42
2019-03-06T09:16:18.275Z,8.49
2019-03-06T09:17:18.268Z,8.49
2019-03-06T09:18:18.255Z,8.46
2019-03-06T09:19:18.265Z,8.46
2019-03-06T09:20:18.231Z,8.55
2019-03-06T09:21:18.222Z,8.65
2019-03-06T09:22:18.211Z,8.65
2019-03-06T09:23:23.265Z,8.61
2019-03-06T09:24:19.214Z,8.67
2019-03-06T09:25:18.179Z,8.70
2019-03-06T09:26:18.250Z,8.71
2019-03-06T09:27:18.156Z,8.80
2019-03-06T09:28:18.207Z,8.78
2019-03-06T09:29:18.151Z,8.86
2019-03-06T09:30:19.641Z,8.96
2019-03-06T09:31:18.129Z,8.82
2019-03-06T09:32:18.105Z,8.93
2019-03-06T09:33:18.101Z,8.97
2019-03-06T09:34:18.105Z,8.97
2019-03-06T09:35:18.075Z,9.06
2019-03-06T09:36:19.076Z,9.04
2019-03-06T09:37:18.065Z,9.08
2019-03-06T09:38:18.054Z,9.15
2019-03-06T09:39:18.057Z,9.26
2019-03-06T09:40:18.021Z,9.20
2019-03-06T09:41:18.017Z,9.34
2019-03-06T09:42:18.582Z,9.34
2019-03-06T09:43:18.011Z,9.41
2019-03-06T09:44:18.032Z,9.42
2019-03-06T09:45:17.973Z,9.48
2019-03-06T09:46:17.957Z,9.49
2019-03-06T09:47:17.947Z,9.62
2019-03-06T09:48:17.935Z,9.62
2019-03-06T09:49:17.955Z,9.80
2019-03-06T09:50:17.916Z,9.81
2019-03-06T09:51:17.928Z,9.91
2019-03-06T09:52:17.906Z,9.99
2019-03-06T09:53:17.892Z,10.06
2019-03-06T09:54:17.886Z,10.02
2019-03-06T09:55:17.874Z,10.28
2019-03-06T09:56:17.859Z,10.29
2019-03-06T09:57:17.841Z,10.34
2019-03-06T09:58:17.830Z,10.42
2019-03-06T09:59:17.829Z,10.42
2019-03-06T10:00:17.808Z,10.55
2019-03-06T10:01:17.804Z,10.57
2019-03-06T10:02:17.809Z,10.68
2019-03-06T10:03:17.782Z,10.72
2019-03-06T10:04:17.799Z,10.80
2019-03-06T10:05:17.760Z,10.84
2019-03-06T10:06:17.748Z,10.93
2019-03-06T10:07:17.737Z,10.91
2019-03-06T10:08:17.730Z,11.02
2019-03-06T10:09:17.716Z,11.09
2019-03-06T10:10:17.727Z,11.12
2019-03-06T10:11:20.076Z,11.16
2019-03-06T10:12:17.689Z,11.12
2019-03-06T10:13:17.675Z,11.27
2019-03-06T10:14:17.665Z,11.24
2019-03-06T10:15:17.672Z,11.31
2019-03-06T10:16:17.648Z,11.35
2019-03-06T10:17:17.648Z,11.45
2019-03-06T10:18:17.619Z,11.42
2019-03-06T10:19:17.615Z,11.45
2019-03-06T10:20:24.841Z,11.60
2019-03-06T10:21:18.599Z,11.62
2019-03-06T10:22:17.576Z,11.67
2019-03-06T10:23:17.586Z,11.67
2019-03-06T10:24:17.585Z,11.78
2019-03-06T10:25:17.559Z,11.85
2019-03-06T10:26:17.545Z,11.93
2019-03-06T10:27:17.531Z,11.87
2019-03-06T10:28:27.351Z,11.98
2019-03-06T10:29:18.521Z,11.93
2019-03-06T10:30:18.730Z,12.00
2019-03-06T10:31:17.487Z,12.08
2019-03-06T10:32:17.471Z,12.08
2019-03-06T10:33:17.460Z,12.08
2019-03-06T10:34:17.464Z,12.15
2019-03-06T10:35:17.461Z,12.30
2019-03-06T10:36:17.430Z,12.37
2019-03-06T10:37:18.153Z,12.34
2019-03-06T10:38:17.419Z,12.34
2019-03-06T10:39:17.398Z,12.44
2019-03-06T10:40:17.402Z,12.41
2019-03-06T10:41:17.373Z,12.49
2019-03-06T10:42:17.363Z,12.49
2019-03-06T10:43:17.356Z,12.55
2019-03-06T10:44:17.372Z,12.66
2019-03-06T10:45:17.366Z,12.62
2019-03-06T10:46:17.341Z,12.66
2019-03-06T10:47:17.312Z,12.73
2019-03-06T10:48:17.300Z,12.85
2019-03-06T10:49:17.294Z,12.88
2019-03-06T10:50:26.049Z,12.92
2019-03-06T10:51:18.286Z,12.95
2019-03-06T10:52:17.263Z,13.07
2019-03-06T10:53:17.248Z,13.01
2019-03-06T10:54:17.240Z,13.03
2019-03-06T10:55:17.226Z,13.10
2019-03-06T10:56:17.228Z,13.09
2019-03-06T10:57:17.208Z,13.14
2019-03-06T10:58:17.209Z,13.24
2019-03-06T10:59:17.190Z,13.38
2019-03-06T11:00:17.178Z,13.35
2019-03-06T11:01:17.180Z,13.36
2019-03-06T11:02:17.157Z,13.43
2019-03-06T11:03:17.141Z,13.44
2019-03-06T11:04:17.130Z,13.51
2019-03-06T11:05:17.120Z,13.53
2019-03-06T11:06:17.122Z,13.69
2019-03-06T11:07:17.102Z,13.62
2019-03-06T11:08:17.089Z,13.66
2019-03-06T11:09:17.096Z,13.66
2019-03-06T11:10:23.972Z,13.69
2019-03-06T11:11:18.076Z,13.72
2019-03-06T11:12:17.047Z,13.75
2019-03-06T11:13:17.037Z,13.76
2019-03-06T11:14:17.037Z,13.80
2019-03-06T11:15:17.018Z,13.76
2019-03-06T11:16:17.947Z,13.91
2019-03-06T11:17:16.994Z,13.91
2019-03-06T11:18:16.982Z,13.99
2019-03-06T11:19:16.977Z,13.93
2019-03-06T11:20:16.963Z,14.06
2019-03-06T11:21:16.969Z,14.08
2019-03-06T11:22:16.940Z,14.12
2019-03-06T11:23:16.930Z,14.11
2019-03-06T11:24:16.919Z,14.09
2019-03-06T11:25:16.909Z,14.13
2019-03-06T11:26:16.907Z,14.16
2019-03-06T11:27:16.886Z,14.16
2019-03-06T11:28:16.876Z,14.13
2019-03-06T11:29:16.867Z,14.30
2019-03-06T11:30:16.872Z,14.35
2019-03-06T11:31:16.854Z,14.49
2019-03-06T11:32:16.855Z,14.54
2019-03-06T11:33:16.856Z,14.66
2019-03-06T11:34:16.814Z,14.78
2019-03-06T11:35:16.803Z,14.82
2019-03-06T11:36:16.813Z,15.04
2019-03-06T11:37:16.820Z,15.09
2019-03-06T11:38:16.770Z,15.23
2019-03-06T11:39:16.760Z,15.37
2019-03-06T11:40:16.751Z,15.49
2019-03-06T11:41:16.768Z,15.64
2019-03-06T11:42:16.728Z,15.60
2019-03-06T11:43:16.717Z,15.74
2019-03-06T11:44:16.732Z,15.84
2019-03-06T11:45:16.698Z,15.92
2019-03-06T11:46:16.697Z,16.11
2019-03-06T11:47:16.674Z,16.23
2019-03-06T11:48:16.664Z,16.32
2019-03-06T11:49:16.664Z,16.44
2019-03-06T11:50:16.647Z,16.63
2019-03-06T11:51:16.665Z,16.90
2019-03-06T11:52:16.621Z,17.09
2019-03-06T11:53:16.610Z,17.21
2019-03-06T11:54:16.600Z,17.39
2019-03-06T11:55:16.592Z,17.43
2019-03-06T11:56:16.594Z,17.30
2019-03-06T11:57:16.567Z,17.45
2019-03-06T11:58:16.557Z,17.58
2019-03-06T11:59:16.548Z,17.66
2019-03-06T12:00:16.536Z,17.60
2019-03-06T12:01:16.540Z,17.79
2019-03-06T12:02:16.962Z,17.92
2019-03-06T12:03:16.504Z,18.04
2019-03-06T12:04:16.494Z,18.25
2019-03-06T12:05:16.483Z,18.42
2019-03-06T12:06:16.485Z,18.65
2019-03-06T12:07:16.465Z,18.66
2019-03-06T12:08:16.451Z,18.91
2019-03-06T12:09:16.443Z,19.09
2019-03-06T12:10:16.431Z,19.21
2019-03-06T12:11:16.443Z,19.38
2019-03-06T12:12:16.412Z,19.43
2019-03-06T12:13:16.407Z,19.64
2019-03-06T12:14:16.388Z,19.64
2019-03-06T12:15:16.380Z,19.46
2019-03-06T12:16:16.367Z,19.40
2019-03-06T12:17:16.362Z,19.47
2019-03-06T12:18:16.348Z,19.49
2019-03-06T12:19:16.347Z,20.13
2019-03-06T12:20:16.329Z,20.56
2019-03-06T12:21:16.318Z,21.37
2019-03-06T12:22:16.313Z,22.38
2019-03-06T12:23:16.294Z,22.57
2019-03-06T12:24:16.285Z,22.66
2019-03-06T12:25:16.275Z,22.49
2019-03-06T12:26:16.261Z,22.15
2019-03-06T12:27:16.257Z,22.02
2019-03-06T12:28:16.241Z,22.14
2019-03-06T12:29:16.231Z,21.93
2019-03-06T12:30:16.218Z,21.75
2019-03-06T12:31:16.210Z,21.73
2019-03-06T12:32:16.201Z,22.29
2019-03-06T12:33:16.187Z,22.21
2019-03-06T12:34:16.177Z,21.82
2019-03-06T12:35:16.166Z,21.53
2019-03-06T12:36:16.160Z,21.09
2019-03-06T12:37:16.158Z,20.98
2019-03-06T12:38:16.140Z,20.82
2019-03-06T12:39:16.124Z,20.79
2019-03-06T12:40:16.116Z,20.91
2019-03-06T12:41:16.103Z,21.13
2019-03-06T12:42:16.105Z,21.55
2019-03-06T12:43:16.085Z,22.27
2019-03-06T12:44:16.076Z,23.31
2019-03-06T12:45:16.063Z,24.19
2019-03-06T12:46:22.755Z,24.92
2019-03-06T12:47:17.052Z,25.36
2019-03-06T12:48:16.032Z,26.61
2019-03-06T12:49:16.019Z,28.54
2019-03-06T12:50:16.008Z,29.95
2019-03-06T12:51:16.001Z,31.03
2019-03-06T12:52:15.999Z,30.64
2019-03-06T12:53:15.982Z,30.88
2019-03-06T12:54:15.967Z,30.96
2019-03-06T12:55:15.956Z,31.45
2019-03-06T12:56:17.958Z,31.68
2019-03-06T12:57:15.955Z,32.02
2019-03-06T12:58:15.925Z,32.14
2019-03-06T12:59:15.916Z,32.56
2019-03-06T13:00:16.207Z,32.90
2019-03-06T13:01:15.896Z,32.85
2019-03-06T13:02:15.902Z,33.72
2019-03-06T13:03:15.877Z,34.23
2019-03-06T13:04:15.871Z,34.58
2019-03-06T13:05:15.855Z,34.69
2019-03-06T13:06:24.059Z,34.98
2019-03-06T13:07:18.117Z,35.49
2019-03-06T13:09:16.812Z,36.16
2019-03-06T13:09:22.317Z,35.87
2019-03-06T13:10:15.807Z,36.37
2019-03-06T13:11:15.794Z,36.72